Overview Statistics Trail Chart Weather Telemetry Raw packets
 

This is the latest recevied weather packets stored in our database for station/object DB7GV-8. If no packets are shown the sender has not sent any weather packets the latest 10 day(s).

<< 17 18 19 20 21 22 23 >>
Time Temp. Humidity Pressure Rain* Wind** Luminosity Snow
1777321073 12.78° C 56% 1018 hPa - - - -
1777320167 13.33° C 55% 1018 hPa - - - -
1777319261 13.89° C 55% 1017.9 hPa - - - -
1777318356 14.44° C 54% 1017.9 hPa - - - -
1777317451 15° C 52% 1018 hPa - - - -
1777316545 15.56° C 51% 1017.8 hPa - - - -
1777315640 16.11° C 50% 1017.6 hPa - - - -
1777314734 17.22° C 49% 1017.5 hPa - - - -
1777313829 18.33° C 47% 1017.5 hPa - - - -
1777312019 20° C 43% 1017.3 hPa - - - -
1777311113 21.11° C 40% 1017.2 hPa - - - -
1777310208 21.67° C 34% 1017.2 hPa - - - -
1777309302 22.78° C 30% 1017.1 hPa - - - -
1777308396 23.33° C 30% 1017.1 hPa - - - -
1777307491 24.44° C 27% 1017.2 hPa - - - -
1777306586 25° C 27% 1017.2 hPa - - - -
1777305681 24.44° C 26% 1017.3 hPa - - - -
1777304775 25.56° C 26% 1017.4 hPa - - - -
1777303869 25.56° C 26% 1017.4 hPa - - - -
1777302964 26.11° C 25% 1017.5 hPa - - - -
1777302059 25.56° C 25% 1017.6 hPa - - - -
1777301153 25.56° C 25% 1017.8 hPa - - - -
1777300248 26.11° C 25% 1017.8 hPa - - - -
1777299343 26.11° C 25% 1018 hPa - - - -
1777296626 26.11° C 23% 1018.5 hPa - - - -

* Rain since midnight (hover to see other rain measurements)
** Current wind speed in m/s (hover to see current wind gust speed)